GLO1921 SBRF-SBSV
Flight info
| Callsign | GLO1921 |
|---|---|
| Flight time | 0h 55m |
| Altitude | 38000 |
| Route | MEXAR UZ14 AKPAS |
| Aircraft | B738/M-SDFGIKLORWXY/LB1 |
Departure
| Time | 2026-05-08 03:13 |
|---|---|
| Airport | Recife/Guararapes - Gilberto Freyre International Airport (SBRF) |
Arrival
| Time | 2026-05-08 04:08 |
|---|---|
| Airport | Deputado Luiz Eduardo Magalhães International Airport (SBSV) |
| Time | Latitude | Longitude | Altitude | Speed | Heading |
|---|---|---|---|---|---|
| 2026-05-08 03:03 | -8.13143 | -34.91924 | 45 ft | 0 kts | 72° |
| 2026-05-08 03:06 | -8.13147 | -34.91936 | 44 ft | 4 kts | 66° |
| 2026-05-08 03:06 | -8.13161 | -34.91959 | 43 ft | 4 kts | 45° |
| 2026-05-08 03:07 | -8.13182 | -34.91975 | 42 ft | 4 kts | 19° |
| 2026-05-08 03:07 | -8.13205 | -34.91978 | 43 ft | 2 kts | 342° |
| 2026-05-08 03:07 | -8.13206 | -34.91978 | 40 ft | 0 kts | 341° |
| 2026-05-08 03:09 | -8.13202 | -34.91979 | 43 ft | 3 kts | 341° |
| 2026-05-08 03:09 | -8.13155 | -34.91995 | 44 ft | 12 kts | 341° |
| 2026-05-08 03:09 | -8.13052 | -34.92029 | 47 ft | 19 kts | 342° |
| 2026-05-08 03:09 | -8.12901 | -34.92078 | 45 ft | 27 kts | 342° |
| 2026-05-08 03:10 | -8.12713 | -34.92141 | 48 ft | 28 kts | 342° |
| 2026-05-08 03:10 | -8.12533 | -34.92199 | 47 ft | 26 kts | 342° |
| 2026-05-08 03:10 | -8.12365 | -34.92255 | 47 ft | 25 kts | 341° |
| 2026-05-08 03:10 | -8.12209 | -34.92307 | 45 ft | 23 kts | 342° |
| 2026-05-08 03:11 | -8.12058 | -34.92357 | 40 ft | 23 kts | 341° |
| 2026-05-08 03:11 | -8.11893 | -34.92412 | 40 ft | 27 kts | 341° |
| 2026-05-08 03:11 | -8.11707 | -34.92475 | 40 ft | 29 kts | 342° |
| 2026-05-08 03:11 | -8.11539 | -34.92571 | 44 ft | 27 kts | 319° |
| 2026-05-08 03:12 | -8.11458 | -34.92682 | 43 ft | 15 kts | 233° |
| 2026-05-08 03:12 | -8.11560 | -34.92672 | 42 ft | 18 kts | 162° |
| 2026-05-08 03:12 | -8.11883 | -34.92566 | 41 ft | 84 kts | 162° |
| 2026-05-08 03:12 | -8.12642 | -34.92316 | 49 ft | 143 kts | 162° |
| 2026-05-08 03:13 | -8.13723 | -34.91961 | 260 ft | 171 kts | 162° |
| 2026-05-08 03:13 | -8.14841 | -34.91599 | 1011 ft | 165 kts | 160° |
| 2026-05-08 03:13 | -8.15940 | -34.91235 | 1710 ft | 170 kts | 159° |
| 2026-05-08 03:13 | -8.17082 | -34.90855 | 2396 ft | 174 kts | 159° |
| 2026-05-08 03:14 | -8.18284 | -34.90572 | 2952 ft | 192 kts | 180° |
| 2026-05-08 03:14 | -8.19701 | -34.90823 | 3195 ft | 218 kts | 187° |
| 2026-05-08 03:14 | -8.21218 | -34.91308 | 3344 ft | 248 kts | 204° |
| 2026-05-08 03:14 | -8.22811 | -34.92180 | 3688 ft | 268 kts | 206° |
| 2026-05-08 03:15 | -8.24464 | -34.93112 | 4313 ft | 275 kts | 206° |
| 2026-05-08 03:15 | -8.26156 | -34.94061 | 5038 ft | 278 kts | 206° |
| 2026-05-08 03:15 | -8.27861 | -34.95007 | 5780 ft | 281 kts | 206° |
| 2026-05-08 03:15 | -8.29591 | -34.95956 | 6486 ft | 285 kts | 205° |
| 2026-05-08 03:16 | -8.31349 | -34.96914 | 7176 ft | 288 kts | 205° |
| 2026-05-08 03:16 | -8.33123 | -34.97875 | 7906 ft | 291 kts | 205° |
| 2026-05-08 03:16 | -8.34921 | -34.98846 | 8627 ft | 294 kts | 205° |
| 2026-05-08 03:16 | -8.36712 | -34.99810 | 9398 ft | 296 kts | 205° |
| 2026-05-08 03:17 | -8.38545 | -35.00795 | 10170 ft | 300 kts | 205° |
| 2026-05-08 03:17 | -8.40447 | -35.01813 | 10485 ft | 321 kts | 205° |
| 2026-05-08 03:17 | -8.42491 | -35.02905 | 10660 ft | 344 kts | 205° |
| 2026-05-08 03:17 | -8.44664 | -35.04068 | 10817 ft | 364 kts | 205° |
| 2026-05-08 03:18 | -8.46965 | -35.05300 | 11070 ft | 380 kts | 206° |
| 2026-05-08 03:18 | -8.49320 | -35.06565 | 11553 ft | 386 kts | 206° |
| 2026-05-08 03:18 | -8.51696 | -35.07842 | 12187 ft | 387 kts | 206° |
| 2026-05-08 03:18 | -8.54053 | -35.09107 | 12820 ft | 390 kts | 206° |
| 2026-05-08 03:19 | -8.56459 | -35.10399 | 13439 ft | 393 kts | 206° |
| 2026-05-08 03:19 | -8.58880 | -35.11698 | 14022 ft | 396 kts | 206° |
| 2026-05-08 03:19 | -8.61333 | -35.13014 | 14588 ft | 399 kts | 206° |
| 2026-05-08 03:19 | -8.63795 | -35.14335 | 15163 ft | 401 kts | 207° |
| 2026-05-08 03:20 | -8.66272 | -35.15664 | 15735 ft | 404 kts | 207° |
| 2026-05-08 03:20 | -8.68767 | -35.17003 | 16272 ft | 407 kts | 207° |
| 2026-05-08 03:20 | -8.70430 | -35.17895 | 16609 ft | 410 kts | 207° |
| 2026-05-08 03:20 | -8.73816 | -35.19713 | 17323 ft | 413 kts | 208° |
| 2026-05-08 03:21 | -8.76333 | -35.21064 | 17857 ft | 415 kts | 208° |
| 2026-05-08 03:21 | -8.78893 | -35.22439 | 18344 ft | 418 kts | 208° |
| 2026-05-08 03:21 | -8.80631 | -35.23372 | 18630 ft | 420 kts | 208° |
| 2026-05-08 03:21 | -8.83196 | -35.24750 | 18998 ft | 424 kts | 209° |
| 2026-05-08 03:22 | -8.85817 | -35.26158 | 19366 ft | 428 kts | 209° |
| 2026-05-08 03:22 | -8.88450 | -35.27581 | 19753 ft | 431 kts | 210° |
| 2026-05-08 03:22 | -8.90998 | -35.29195 | 20108 ft | 433 kts | 216° |
| 2026-05-08 03:22 | -8.93477 | -35.30943 | 20462 ft | 437 kts | 217° |
| 2026-05-08 03:23 | -8.95961 | -35.32743 | 20818 ft | 440 kts | 217° |
| 2026-05-08 03:23 | -8.98456 | -35.34552 | 21197 ft | 442 kts | 218° |
| 2026-05-08 03:23 | -9.00986 | -35.36369 | 21591 ft | 445 kts | 217° |
| 2026-05-08 03:23 | -9.03492 | -35.38151 | 21935 ft | 448 kts | 217° |
| 2026-05-08 03:24 | -9.06059 | -35.39966 | 22265 ft | 451 kts | 217° |
| 2026-05-08 03:24 | -9.08650 | -35.41792 | 22604 ft | 454 kts | 218° |
| 2026-05-08 03:24 | -9.11248 | -35.43621 | 22939 ft | 457 kts | 218° |
| 2026-05-08 03:24 | -9.13869 | -35.45466 | 23273 ft | 460 kts | 218° |
| 2026-05-08 03:25 | -9.16507 | -35.47326 | 23582 ft | 463 kts | 218° |
| 2026-05-08 03:25 | -9.19158 | -35.49195 | 23844 ft | 465 kts | 218° |
| 2026-05-08 03:25 | -9.21823 | -35.51074 | 24156 ft | 466 kts | 218° |
| 2026-05-08 03:25 | -9.24447 | -35.52922 | 24547 ft | 464 kts | 218° |
| 2026-05-08 03:26 | -9.27102 | -35.54790 | 24889 ft | 464 kts | 218° |
| 2026-05-08 03:26 | -9.29755 | -35.56657 | 25186 ft | 465 kts | 218° |
| 2026-05-08 03:26 | -9.32421 | -35.58535 | 25423 ft | 468 kts | 218° |
| 2026-05-08 03:26 | -9.35101 | -35.60424 | 25646 ft | 470 kts | 218° |
| 2026-05-08 03:27 | -9.37796 | -35.62323 | 25900 ft | 472 kts | 218° |
| 2026-05-08 03:27 | -9.40496 | -35.64226 | 26139 ft | 473 kts | 219° |
| 2026-05-08 03:27 | -9.43172 | -35.66113 | 26371 ft | 475 kts | 219° |
| 2026-05-08 03:27 | -9.45889 | -35.68028 | 26586 ft | 476 kts | 219° |
| 2026-05-08 03:28 | -9.48614 | -35.69950 | 26815 ft | 478 kts | 219° |
| 2026-05-08 03:28 | -9.51351 | -35.71881 | 27029 ft | 479 kts | 219° |
| 2026-05-08 03:28 | -9.54093 | -35.73815 | 27232 ft | 481 kts | 219° |
| 2026-05-08 03:28 | -9.56848 | -35.75760 | 27440 ft | 482 kts | 219° |
| 2026-05-08 03:29 | -9.59605 | -35.77706 | 27663 ft | 483 kts | 219° |
| 2026-05-08 03:29 | -9.62366 | -35.79654 | 27883 ft | 484 kts | 219° |
| 2026-05-08 03:29 | -9.65102 | -35.81586 | 28049 ft | 485 kts | 219° |
| 2026-05-08 03:29 | -9.67884 | -35.83551 | 28223 ft | 487 kts | 219° |
| 2026-05-08 03:30 | -9.73426 | -35.87466 | 28692 ft | 487 kts | 219° |
| 2026-05-08 03:30 | -9.78985 | -35.91393 | 29276 ft | 484 kts | 219° |
| 2026-05-08 03:31 | -9.84531 | -35.95315 | 29779 ft | 485 kts | 219° |
| 2026-05-08 03:31 | -9.90027 | -35.99202 | 30326 ft | 483 kts | 219° |
| 2026-05-08 03:32 | -9.92780 | -36.01150 | 30553 ft | 482 kts | 219° |
| 2026-05-08 03:32 | -9.95528 | -36.03095 | 30821 ft | 481 kts | 219° |
| 2026-05-08 03:32 | -9.98270 | -36.05036 | 31101 ft | 480 kts | 219° |
| 2026-05-08 03:32 | -10.01009 | -36.06975 | 31358 ft | 480 kts | 219° |
| 2026-05-08 03:33 | -10.03758 | -36.08922 | 31602 ft | 480 kts | 219° |
| 2026-05-08 03:33 | -10.06506 | -36.10869 | 31871 ft | 479 kts | 220° |
| 2026-05-08 03:33 | -10.09207 | -36.12782 | 32168 ft | 478 kts | 220° |
| 2026-05-08 03:33 | -10.11928 | -36.14710 | 32494 ft | 476 kts | 220° |
| 2026-05-08 03:34 | -10.14644 | -36.16635 | 32775 ft | 476 kts | 220° |
| 2026-05-08 03:34 | -10.17364 | -36.18564 | 33039 ft | 476 kts | 220° |
| 2026-05-08 03:34 | -10.20085 | -36.20493 | 33316 ft | 476 kts | 220° |
| 2026-05-08 03:34 | -10.22771 | -36.22398 | 33623 ft | 475 kts | 220° |
| 2026-05-08 03:35 | -10.25475 | -36.24317 | 33912 ft | 474 kts | 220° |
| 2026-05-08 03:35 | -10.28180 | -36.26236 | 34176 ft | 474 kts | 220° |
| 2026-05-08 03:35 | -10.30883 | -36.28155 | 34441 ft | 473 kts | 220° |
| 2026-05-08 03:35 | -10.33582 | -36.30070 | 34724 ft | 472 kts | 220° |
| 2026-05-08 03:36 | -10.36279 | -36.31984 | 35022 ft | 470 kts | 220° |
| 2026-05-08 03:36 | -10.38929 | -36.33866 | 35329 ft | 469 kts | 220° |
| 2026-05-08 03:36 | -10.41602 | -36.35764 | 35616 ft | 467 kts | 220° |
| 2026-05-08 03:36 | -10.44269 | -36.37659 | 35883 ft | 466 kts | 220° |
| 2026-05-08 03:37 | -10.46930 | -36.39550 | 36133 ft | 466 kts | 220° |
| 2026-05-08 03:37 | -10.49584 | -36.41437 | 36396 ft | 465 kts | 220° |
| 2026-05-08 03:37 | -10.52231 | -36.43319 | 36676 ft | 463 kts | 220° |
| 2026-05-08 03:37 | -10.54865 | -36.45192 | 36949 ft | 462 kts | 220° |
| 2026-05-08 03:38 | -10.57467 | -36.47043 | 37200 ft | 461 kts | 220° |
| 2026-05-08 03:38 | -10.60097 | -36.48914 | 37451 ft | 460 kts | 220° |
| 2026-05-08 03:38 | -10.62726 | -36.50784 | 37728 ft | 459 kts | 220° |
| 2026-05-08 03:38 | -10.65332 | -36.52639 | 38016 ft | 457 kts | 220° |
| 2026-05-08 03:39 | -10.67955 | -36.54507 | 37985 ft | 461 kts | 220° |
| 2026-05-08 03:39 | -10.73186 | -36.58233 | 37999 ft | 457 kts | 220° |
| 2026-05-08 03:40 | -10.78346 | -36.61909 | 38004 ft | 454 kts | 220° |
| 2026-05-08 03:40 | -10.83511 | -36.65590 | 38004 ft | 452 kts | 220° |
| 2026-05-08 03:41 | -10.88634 | -36.69261 | 38008 ft | 450 kts | 220° |
| 2026-05-08 03:41 | -10.93757 | -36.72943 | 38013 ft | 450 kts | 220° |
| 2026-05-08 03:42 | -10.98874 | -36.76623 | 38019 ft | 450 kts | 220° |
| 2026-05-08 03:42 | -11.03996 | -36.80306 | 38007 ft | 451 kts | 220° |
| 2026-05-08 03:43 | -11.09118 | -36.83990 | 38014 ft | 451 kts | 220° |
| 2026-05-08 03:43 | -11.14243 | -36.87678 | 38018 ft | 451 kts | 220° |
| 2026-05-08 03:44 | -11.19347 | -36.91352 | 38017 ft | 452 kts | 220° |
| 2026-05-08 03:44 | -11.24474 | -36.95044 | 38008 ft | 451 kts | 220° |
| 2026-05-08 03:45 | -11.29604 | -36.98741 | 38006 ft | 451 kts | 220° |
| 2026-05-08 03:45 | -11.34726 | -37.02432 | 38010 ft | 450 kts | 220° |
| 2026-05-08 03:46 | -11.39834 | -37.06115 | 38002 ft | 449 kts | 220° |
| 2026-05-08 03:46 | -11.44908 | -37.09776 | 38020 ft | 448 kts | 220° |
| 2026-05-08 03:47 | -11.50000 | -37.13452 | 38005 ft | 448 kts | 220° |
| 2026-05-08 03:47 | -11.55079 | -37.17119 | 38004 ft | 447 kts | 220° |
| 2026-05-08 03:48 | -11.60051 | -37.20706 | 37978 ft | 426 kts | 220° |
| 2026-05-08 03:48 | -11.62433 | -37.22422 | 37981 ft | 412 kts | 220° |
| 2026-05-08 03:48 | -11.64740 | -37.24085 | 37989 ft | 398 kts | 220° |
| 2026-05-08 03:48 | -11.66967 | -37.25695 | 37971 ft | 385 kts | 220° |
| 2026-05-08 03:49 | -11.69120 | -37.27251 | 38013 ft | 372 kts | 220° |
| 2026-05-08 03:49 | -11.73344 | -37.30318 | 38020 ft | 377 kts | 220° |
| 2026-05-08 03:50 | -11.77668 | -37.33457 | 38025 ft | 388 kts | 220° |
| 2026-05-08 03:50 | -11.79868 | -37.35050 | 37877 ft | 388 kts | 220° |
| 2026-05-08 03:50 | -11.82073 | -37.36646 | 37195 ft | 392 kts | 220° |
| 2026-05-08 03:50 | -11.84338 | -37.38289 | 36089 ft | 407 kts | 220° |
| 2026-05-08 03:51 | -11.86715 | -37.40015 | 34825 ft | 428 kts | 220° |
| 2026-05-08 03:51 | -11.89173 | -37.41798 | 33504 ft | 447 kts | 219° |
| 2026-05-08 03:51 | -11.91722 | -37.43734 | 32230 ft | 459 kts | 224° |
| 2026-05-08 03:51 | -11.94025 | -37.46009 | 31126 ft | 463 kts | 233° |
| 2026-05-08 03:52 | -11.96033 | -37.48612 | 30045 ft | 468 kts | 234° |
| 2026-05-08 03:52 | -11.98036 | -37.51261 | 28753 ft | 473 kts | 234° |
| 2026-05-08 03:52 | -12.00036 | -37.53898 | 27476 ft | 478 kts | 234° |
| 2026-05-08 03:52 | -12.02084 | -37.56582 | 26385 ft | 480 kts | 233° |
| 2026-05-08 03:53 | -12.04145 | -37.59267 | 25578 ft | 476 kts | 233° |
| 2026-05-08 03:53 | -12.06180 | -37.61908 | 24891 ft | 469 kts | 233° |
| 2026-05-08 03:53 | -12.08191 | -37.64513 | 24180 ft | 464 kts | 233° |
| 2026-05-08 03:53 | -12.10185 | -37.67094 | 23414 ft | 460 kts | 233° |
| 2026-05-08 03:54 | -12.12160 | -37.69653 | 22577 ft | 456 kts | 233° |
| 2026-05-08 03:54 | -12.14118 | -37.72191 | 21810 ft | 451 kts | 232° |
| 2026-05-08 03:54 | -12.16048 | -37.74695 | 21044 ft | 447 kts | 232° |
| 2026-05-08 03:54 | -12.17942 | -37.77152 | 20316 ft | 443 kts | 232° |
| 2026-05-08 03:55 | -12.19835 | -37.79609 | 19615 ft | 438 kts | 232° |
| 2026-05-08 03:55 | -12.21714 | -37.82048 | 18918 ft | 434 kts | 232° |
| 2026-05-08 03:55 | -12.23576 | -37.84467 | 18226 ft | 430 kts | 232° |
| 2026-05-08 03:55 | -12.25418 | -37.86859 | 17425 ft | 427 kts | 231° |
| 2026-05-08 03:56 | -12.27250 | -37.89240 | 16644 ft | 424 kts | 231° |
| 2026-05-08 03:56 | -12.29075 | -37.91611 | 15863 ft | 423 kts | 231° |
| 2026-05-08 03:56 | -12.30892 | -37.93974 | 15104 ft | 421 kts | 231° |
| 2026-05-08 03:56 | -12.32699 | -37.96324 | 14375 ft | 420 kts | 231° |
| 2026-05-08 03:57 | -12.34500 | -37.98666 | 13680 ft | 417 kts | 231° |
| 2026-05-08 03:57 | -12.36293 | -38.00998 | 12964 ft | 414 kts | 231° |
| 2026-05-08 03:57 | -12.38038 | -38.03269 | 12319 ft | 410 kts | 231° |
| 2026-05-08 03:57 | -12.39793 | -38.05555 | 11691 ft | 405 kts | 231° |
| 2026-05-08 03:58 | -12.41528 | -38.07814 | 11062 ft | 401 kts | 231° |
| 2026-05-08 03:58 | -12.43245 | -38.10049 | 10437 ft | 397 kts | 230° |
| 2026-05-08 03:58 | -12.44942 | -38.12260 | 9831 ft | 394 kts | 230° |
| 2026-05-08 03:58 | -12.46628 | -38.14457 | 9189 ft | 390 kts | 230° |
| 2026-05-08 03:59 | -12.48293 | -38.16626 | 8598 ft | 385 kts | 230° |
| 2026-05-08 03:59 | -12.49928 | -38.18758 | 8131 ft | 374 kts | 230° |
| 2026-05-08 03:59 | -12.51468 | -38.20768 | 7725 ft | 355 kts | 230° |
| 2026-05-08 03:59 | -12.52952 | -38.22706 | 7353 ft | 337 kts | 230° |
| 2026-05-08 04:00 | -12.54369 | -38.24556 | 6998 ft | 322 kts | 229° |
| 2026-05-08 04:00 | -12.55722 | -38.26320 | 6660 ft | 309 kts | 229° |
| 2026-05-08 04:00 | -12.57028 | -38.28024 | 6309 ft | 298 kts | 229° |
| 2026-05-08 04:00 | -12.58288 | -38.29667 | 5981 ft | 288 kts | 229° |
| 2026-05-08 04:01 | -12.59507 | -38.31257 | 5675 ft | 279 kts | 229° |
| 2026-05-08 04:01 | -12.60679 | -38.32787 | 5371 ft | 270 kts | 229° |
| 2026-05-08 04:01 | -12.61824 | -38.34280 | 5086 ft | 263 kts | 229° |
| 2026-05-08 04:01 | -12.62937 | -38.35734 | 4808 ft | 256 kts | 229° |
| 2026-05-08 04:02 | -12.64030 | -38.37160 | 4546 ft | 254 kts | 229° |
| 2026-05-08 04:02 | -12.65119 | -38.38581 | 4285 ft | 254 kts | 229° |
| 2026-05-08 04:02 | -12.66281 | -38.39927 | 4015 ft | 249 kts | 213° |
| 2026-05-08 04:02 | -12.67807 | -38.40663 | 3849 ft | 239 kts | 197° |
| 2026-05-08 04:03 | -12.69356 | -38.41270 | 3670 ft | 236 kts | 198° |
| 2026-05-08 04:03 | -12.72354 | -38.42468 | 3330 ft | 229 kts | 198° |
| 2026-05-08 04:03 | -12.73827 | -38.43059 | 3162 ft | 225 kts | 198° |
| 2026-05-08 04:04 | -12.75277 | -38.43641 | 3002 ft | 221 kts | 198° |
| 2026-05-08 04:04 | -12.76716 | -38.44115 | 2855 ft | 212 kts | 181° |
| 2026-05-08 04:04 | -12.78055 | -38.43801 | 2705 ft | 195 kts | 149° |
| 2026-05-08 04:04 | -12.79163 | -38.43058 | 2508 ft | 187 kts | 142° |
| 2026-05-08 04:05 | -12.80193 | -38.42286 | 2326 ft | 180 kts | 141° |
| 2026-05-08 04:05 | -12.81182 | -38.41543 | 2143 ft | 173 kts | 141° |
| 2026-05-08 04:05 | -12.82134 | -38.40829 | 1974 ft | 166 kts | 141° |
| 2026-05-08 04:05 | -12.83050 | -38.40144 | 1816 ft | 161 kts | 142° |
| 2026-05-08 04:06 | -12.83952 | -38.39469 | 1655 ft | 162 kts | 142° |
| 2026-05-08 04:06 | -12.84867 | -38.38784 | 1454 ft | 162 kts | 142° |
| 2026-05-08 04:06 | -12.85745 | -38.38129 | 1254 ft | 152 kts | 143° |
| 2026-05-08 04:06 | -12.86553 | -38.37526 | 1120 ft | 139 kts | 143° |
| 2026-05-08 04:07 | -12.87329 | -38.36948 | 901 ft | 136 kts | 143° |
| 2026-05-08 04:07 | -12.88093 | -38.36378 | 732 ft | 136 kts | 143° |
| 2026-05-08 04:07 | -12.88860 | -38.35806 | 561 ft | 137 kts | 142° |
| 2026-05-08 04:07 | -12.89631 | -38.35232 | 375 ft | 136 kts | 142° |
| 2026-05-08 04:08 | -12.90398 | -38.34654 | 189 ft | 138 kts | 143° |
| 2026-05-08 04:08 | -12.91171 | -38.34081 | 48 ft | 130 kts | 142° |
| 2026-05-08 04:08 | -12.91606 | -38.33760 | 45 ft | 41 kts | 143° |
| 2026-05-08 04:08 | -12.91771 | -38.33634 | 46 ft | 28 kts | 143° |
| 2026-05-08 04:09 | -12.91829 | -38.33531 | 44 ft | 15 kts | 51° |
| 2026-05-08 04:09 | -12.91780 | -38.33446 | 41 ft | 16 kts | 128° |
| 2026-05-08 04:09 | -12.91834 | -38.33359 | 43 ft | 15 kts | 79° |
| 2026-05-08 04:09 | -12.91814 | -38.33254 | 43 ft | 15 kts | 79° |
| 2026-05-08 04:10 | -12.91772 | -38.33167 | 43 ft | 14 kts | 25° |
| 2026-05-08 04:10 | -12.91682 | -38.33130 | 41 ft | 14 kts | 21° |
| 2026-05-08 04:10 | -12.91592 | -38.33130 | 43 ft | 13 kts | 348° |
| 2026-05-08 04:10 | -12.91519 | -38.33170 | 43 ft | 13 kts | 284° |
| 2026-05-08 04:11 | -12.91527 | -38.33230 | 43 ft | 12 kts | 258° |
| 2026-05-08 04:11 | -12.91542 | -38.33309 | 43 ft | 7 kts | 266° |
| 2026-05-08 04:11 | -12.91503 | -38.33334 | 43 ft | 7 kts | 353° |
| 2026-05-08 04:11 | -12.91485 | -38.33336 | 43 ft | 2 kts | 352° |
| 2026-05-08 04:12 | -12.91478 | -38.33337 | 43 ft | 0 kts | 353° |
| 2026-05-08 04:12 | -12.91490 | -38.33336 | 43 ft | 9 kts | 354° |
| 2026-05-08 04:12 | -12.91501 | -38.33334 | 43 ft | 2 kts | 355° |
| 2026-05-08 04:12 | -12.91497 | -38.33335 | 43 ft | 0 kts | 354° |